createdAt,value
2018-04-10T00:00:22.341Z,33.87
2018-04-10T00:02:26.384Z,32.37
2018-04-10T00:04:30.394Z,32.33
2018-04-10T00:06:34.431Z,35.73
2018-04-10T00:08:38.488Z,33.83
2018-04-10T00:10:42.503Z,33.90
2018-04-10T00:12:46.543Z,34.83
2018-04-10T00:14:50.627Z,35.97
2018-04-10T00:16:54.625Z,33.77
2018-04-10T00:18:58.648Z,34.40
2018-04-10T00:21:03.856Z,36.27
2018-04-10T00:23:07.876Z,35.47
2018-04-10T00:25:13.170Z,36.87
2018-04-10T00:27:17.214Z,35.93
2018-04-10T00:29:21.235Z,36.23
2018-04-10T00:31:25.240Z,35.63
2018-04-10T00:33:29.273Z,35.83
2018-04-10T00:35:33.336Z,36.67
2018-04-10T00:37:37.365Z,36.80
2018-04-10T00:39:41.422Z,35.50
2018-04-10T00:41:45.443Z,36.07
2018-04-10T00:43:49.501Z,34.70
2018-04-10T00:45:53.550Z,37.10
2018-04-10T00:47:57.597Z,37.80
2018-04-10T00:50:01.650Z,38.20
2018-04-10T00:52:05.690Z,37.10
2018-04-10T00:54:09.726Z,37.37
2018-04-10T00:56:13.776Z,37.00
2018-04-10T00:58:17.777Z,36.03
2018-04-10T01:00:21.771Z,34.83
2018-04-10T01:02:25.834Z,37.10
2018-04-10T01:04:29.833Z,37.13
2018-04-10T01:06:33.870Z,39.60
2018-04-10T01:08:37.907Z,37.80
2018-04-10T01:10:41.922Z,38.17
2018-04-10T01:12:45.963Z,39.23
2018-04-10T01:14:50.098Z,40.20
2018-04-10T01:16:54.122Z,39.70
2018-04-10T01:18:58.181Z,40.03
2018-04-10T01:21:03.405Z,38.93
2018-04-10T01:23:07.583Z,40.00
2018-04-10T01:25:12.010Z,43.07
2018-04-10T01:27:16.024Z,42.00
2018-04-10T01:29:20.032Z,41.37
2018-04-10T01:31:24.080Z,43.90
2018-04-10T01:33:28.095Z,42.97
2018-04-10T01:35:32.144Z,41.80
2018-04-10T01:37:36.187Z,40.43
2018-04-10T01:39:40.225Z,42.20
2018-04-10T01:41:44.269Z,41.60
2018-04-10T01:43:48.284Z,41.67
2018-04-10T01:45:52.281Z,42.27
2018-04-10T01:47:56.325Z,42.07
2018-04-10T01:50:00.354Z,41.20
2018-04-10T01:52:04.401Z,42.40
2018-04-10T01:54:08.405Z,42.10
2018-04-10T01:56:12.397Z,40.53
2018-04-10T01:58:16.445Z,42.50
2018-04-10T02:00:20.480Z,41.40
2018-04-10T02:02:24.546Z,40.10
2018-04-10T02:04:28.559Z,40.73
2018-04-10T02:06:32.572Z,42.90
2018-04-10T02:08:36.602Z,41.87
2018-04-10T02:17:56.458Z,45.03
2018-04-10T02:20:12.197Z,43.20
2018-04-10T02:22:16.232Z,43.43
2018-04-10T02:24:20.297Z,44.93
2018-04-10T02:26:24.315Z,41.60
2018-04-10T02:28:28.377Z,42.00
2018-04-10T02:30:32.416Z,43.30
2018-04-10T02:32:36.470Z,45.17
2018-04-10T02:34:40.505Z,44.77
2018-04-10T02:36:44.533Z,42.27
2018-04-10T02:38:48.614Z,44.77
2018-04-10T02:40:52.638Z,45.10
2018-04-10T02:42:56.714Z,43.90
2018-04-10T02:45:00.770Z,44.57
2018-04-10T02:47:04.820Z,43.50
2018-04-10T02:49:08.860Z,47.13
2018-04-10T02:51:12.907Z,44.87
2018-04-10T02:53:16.984Z,42.67
2018-04-10T02:55:21.024Z,44.17
2018-04-10T02:57:25.125Z,43.37
2018-04-10T02:59:29.213Z,43.07
2018-04-10T03:01:33.268Z,44.57
2018-04-10T03:03:37.276Z,41.77
2018-04-10T03:05:41.402Z,45.40
2018-04-10T03:07:45.487Z,45.97
2018-04-10T03:09:49.593Z,43.63
2018-04-10T03:11:53.711Z,45.70
2018-04-10T03:13:57.845Z,45.93
2018-04-10T03:16:01.905Z,43.93
2018-04-10T03:18:05.989Z,45.27
2018-04-10T03:20:10.073Z,44.33
2018-04-10T03:22:14.119Z,44.03
2018-04-10T03:24:18.146Z,45.47
2018-04-10T03:26:22.164Z,44.13
2018-04-10T03:28:26.199Z,43.70
2018-04-10T03:30:30.303Z,44.13
2018-04-10T03:32:34.353Z,45.43
2018-04-10T03:34:38.403Z,46.40
2018-04-10T03:36:42.485Z,44.97
2018-04-10T03:38:46.561Z,46.23
2018-04-10T03:40:50.646Z,45.77
2018-04-10T03:42:54.696Z,46.07
2018-04-10T03:44:58.722Z,45.57
2018-04-10T03:47:02.784Z,46.07
2018-04-10T03:49:06.821Z,46.70
2018-04-10T03:51:10.861Z,46.30
2018-04-10T03:53:14.861Z,47.13
2018-04-10T03:55:18.875Z,43.27
2018-04-10T03:57:22.936Z,45.43
2018-04-10T03:59:26.959Z,47.87
2018-04-10T04:01:30.996Z,48.43
2018-04-10T04:03:36.158Z,46.97
2018-04-10T04:05:40.194Z,47.27
2018-04-10T04:07:44.415Z,48.27
2018-04-10T04:09:48.432Z,46.87
2018-04-10T04:11:52.461Z,48.93
2018-04-10T04:13:56.643Z,47.00
2018-04-10T04:16:00.657Z,47.00
2018-04-10T04:18:04.709Z,45.50
2018-04-10T04:20:28.496Z,44.80
2018-04-10T04:22:38.410Z,46.80
2018-04-10T04:24:42.468Z,46.30
2018-04-10T04:26:46.511Z,46.63
2018-04-10T04:28:50.566Z,49.03
2018-04-10T04:30:54.592Z,47.80
2018-04-10T04:32:58.640Z,49.70
2018-04-10T04:35:02.708Z,50.27
2018-04-10T04:37:06.763Z,47.27
2018-04-10T04:39:10.810Z,47.20
2018-04-10T04:41:14.835Z,47.50
2018-04-10T04:43:18.885Z,46.90
2018-04-10T04:45:22.903Z,50.60
2018-04-10T04:47:26.927Z,49.10
2018-04-10T04:49:30.954Z,46.10
2018-04-10T04:51:34.974Z,47.53
2018-04-10T04:53:39.019Z,47.70
2018-04-10T04:55:43.049Z,46.03
2018-04-10T04:57:47.077Z,47.53
2018-04-10T04:59:51.235Z,46.40
2018-04-10T05:02:00.085Z,46.10
2018-04-10T05:04:04.157Z,46.43
2018-04-10T05:06:08.174Z,50.73
2018-04-10T05:08:12.179Z,47.60
2018-04-10T05:10:16.239Z,48.47
2018-04-10T05:12:20.250Z,46.50
2018-04-10T05:14:24.377Z,50.27
2018-04-10T05:16:28.389Z,49.83
2018-04-10T05:18:32.393Z,48.73
2018-04-10T05:20:36.495Z,47.87
2018-04-10T05:22:40.518Z,51.47
2018-04-10T05:24:44.635Z,48.27
2018-04-10T05:26:48.656Z,50.00
2018-04-10T05:28:52.695Z,48.87
2018-04-10T05:30:56.757Z,47.50
2018-04-10T05:33:00.788Z,48.90
2018-04-10T05:35:04.833Z,50.97
2018-04-10T05:37:08.854Z,49.03
2018-04-10T05:39:12.890Z,49.57
2018-04-10T05:41:16.963Z,49.97
2018-04-10T05:43:20.972Z,48.03
2018-04-10T05:45:25.011Z,47.40
2018-04-10T05:47:29.311Z,48.83
2018-04-10T05:49:33.315Z,48.27
2018-04-10T05:51:37.409Z,45.53
2018-04-10T05:53:41.486Z,48.40
2018-04-10T05:55:45.539Z,44.80
2018-04-10T05:57:49.554Z,46.03
2018-04-10T05:59:53.593Z,45.50
2018-04-10T06:01:57.627Z,42.63
2018-04-10T06:04:01.687Z,40.87
2018-04-10T06:06:05.743Z,39.90
2018-04-10T06:08:09.889Z,38.60
2018-04-10T06:10:13.913Z,38.53
2018-04-10T06:12:17.970Z,37.20
2018-04-10T06:14:22.077Z,37.87
2018-04-10T06:16:26.131Z,37.53
2018-04-10T06:18:30.148Z,38.07
2018-04-10T06:20:34.202Z,35.80
2018-04-10T06:22:38.334Z,36.17
2018-04-10T06:24:42.369Z,35.13
2018-04-10T06:26:46.416Z,37.87
2018-04-10T06:28:50.440Z,35.80
2018-04-10T06:30:54.468Z,36.73
2018-04-10T06:32:58.520Z,33.90
2018-04-10T06:35:02.543Z,35.23
2018-04-10T06:37:06.584Z,33.03
2018-04-10T06:39:10.617Z,32.20
2018-04-10T06:41:14.642Z,31.77
2018-04-10T06:43:18.847Z,32.03
2018-04-10T06:45:22.893Z,31.10
2018-04-10T06:47:26.957Z,34.13
2018-04-10T06:49:30.959Z,32.00
2018-04-10T06:51:34.981Z,32.50
2018-04-10T06:53:39.017Z,30.23
2018-04-10T06:55:43.050Z,31.60
2018-04-10T06:57:47.085Z,30.90
2018-04-10T06:59:51.140Z,31.90
2018-04-10T07:01:55.262Z,28.77
2018-04-10T07:03:59.318Z,29.10
2018-04-10T07:06:03.351Z,29.40
2018-04-10T07:08:07.412Z,27.97
2018-04-10T07:10:11.436Z,26.63
2018-04-10T07:12:15.459Z,27.83
2018-04-10T07:14:19.493Z,26.13
2018-04-10T07:16:23.504Z,28.33
2018-04-10T07:18:27.536Z,26.57
2018-04-10T07:20:31.580Z,26.10
2018-04-10T07:22:35.581Z,25.90
2018-04-10T07:24:39.616Z,23.63
2018-04-10T07:26:43.644Z,23.00
2018-04-10T07:28:47.654Z,24.10
2018-04-10T07:30:51.708Z,21.33
2018-04-10T07:32:55.755Z,22.13
2018-04-10T07:34:59.832Z,23.47
2018-04-10T07:37:03.863Z,21.50
2018-04-10T07:39:07.882Z,21.57
2018-04-10T07:41:11.939Z,20.10
2018-04-10T07:43:15.940Z,19.63
2018-04-10T07:45:19.996Z,18.27
2018-04-10T07:47:24.009Z,18.83
2018-04-10T07:49:28.067Z,17.53
2018-04-10T07:51:32.106Z,18.73
2018-04-10T07:53:36.137Z,16.60
2018-04-10T07:55:40.182Z,16.80
2018-04-10T07:57:44.211Z,16.63
2018-04-10T07:59:48.215Z,18.47
2018-04-10T08:01:52.275Z,19.07
2018-04-10T08:03:56.293Z,18.37
2018-04-10T08:06:00.353Z,18.90
2018-04-10T08:08:04.397Z,16.83
2018-04-10T08:10:08.416Z,17.07
2018-04-10T08:12:12.492Z,18.00
2018-04-10T08:16:39.478Z,16.60
2018-04-10T08:18:43.503Z,16.97
2018-04-10T08:20:47.509Z,15.13
2018-04-10T08:22:51.578Z,17.93
2018-04-10T08:24:55.578Z,15.70
2018-04-10T08:26:59.624Z,17.60
2018-04-10T08:29:03.639Z,15.80
2018-04-10T08:31:07.637Z,16.43
2018-04-10T08:33:11.700Z,16.13
2018-04-10T08:35:15.750Z,16.33
2018-04-10T08:37:19.813Z,15.63
2018-04-10T08:39:23.834Z,14.17
2018-04-10T08:41:27.855Z,14.60
2018-04-10T08:43:31.895Z,13.53
2018-04-10T08:45:35.924Z,12.63
2018-04-10T08:47:39.971Z,12.90
2018-04-10T08:49:43.977Z,12.30
2018-04-10T08:51:47.990Z,11.97
2018-04-10T08:53:52.013Z,11.07
2018-04-10T08:55:56.022Z,9.90
2018-04-10T08:58:00.052Z,10.60
2018-04-10T09:00:04.042Z,9.77
2018-04-10T09:02:08.050Z,8.60
2018-04-10T09:04:12.126Z,8.00
2018-04-10T09:06:16.160Z,7.57
2018-04-10T09:08:20.197Z,7.87
2018-04-10T09:10:24.227Z,8.53
2018-04-10T09:12:28.228Z,7.30
2018-04-10T09:14:32.383Z,8.60
2018-04-10T09:16:36.399Z,9.10
2018-04-10T09:18:40.458Z,8.73
2018-04-10T09:20:44.498Z,8.67
2018-04-10T09:22:48.526Z,9.00
2018-04-10T09:24:52.570Z,9.80
2018-04-10T09:26:56.579Z,10.27
2018-04-10T09:29:00.644Z,11.50
2018-04-10T09:31:04.684Z,9.80
2018-04-10T09:33:08.702Z,10.80
2018-04-10T09:35:12.780Z,10.50
2018-04-10T09:37:16.823Z,11.10
2018-04-10T09:39:20.868Z,10.53
2018-04-10T09:41:24.964Z,11.10
2018-04-10T09:43:28.970Z,10.50
2018-04-10T09:45:32.992Z,9.60
2018-04-10T09:47:37.003Z,10.30
2018-04-10T09:49:41.052Z,11.20
2018-04-10T09:51:45.074Z,8.90
2018-04-10T09:53:49.084Z,9.30
2018-04-10T09:55:53.114Z,10.03
2018-04-10T09:57:57.123Z,9.17
2018-04-10T10:00:01.408Z,9.07
2018-04-10T10:02:05.412Z,9.80
2018-04-10T10:04:09.452Z,9.97
2018-04-10T10:06:13.489Z,9.10
2018-04-10T10:08:17.527Z,9.20
2018-04-10T10:10:21.566Z,9.73
2018-04-10T10:12:25.582Z,9.30
2018-04-10T10:14:29.645Z,9.27
2018-04-10T10:16:33.703Z,9.73
2018-04-10T10:18:37.749Z,10.30
2018-04-10T10:20:41.796Z,9.87
2018-04-10T10:22:45.878Z,9.20
2018-04-10T10:24:49.895Z,9.17
2018-04-10T10:26:53.948Z,8.20
2018-04-10T10:28:57.991Z,9.40
2018-04-10T10:31:02.046Z,8.70
2018-04-10T10:33:06.056Z,7.93
2018-04-10T10:35:10.073Z,8.40
2018-04-10T10:37:14.127Z,8.00
2018-04-10T10:39:18.165Z,8.43
2018-04-10T10:41:22.208Z,8.50
2018-04-10T10:43:26.235Z,8.60
2018-04-10T10:45:30.241Z,8.30
2018-04-10T10:47:34.310Z,7.07
2018-04-10T10:49:38.365Z,7.03
2018-04-10T10:51:42.470Z,6.83
2018-04-10T10:53:46.524Z,6.27
2018-04-10T10:55:50.543Z,6.40
2018-04-10T10:57:54.576Z,6.83
2018-04-10T10:59:58.602Z,6.20
2018-04-10T11:02:02.810Z,7.70
2018-04-10T11:04:06.857Z,7.47
2018-04-10T11:06:10.873Z,6.17
2018-04-10T11:08:14.909Z,6.37
2018-04-10T11:10:18.911Z,7.20
2018-04-10T11:12:23.062Z,6.87
2018-04-10T11:14:27.292Z,6.60
2018-04-10T11:16:31.320Z,6.20
2018-04-10T11:18:35.384Z,6.80
2018-04-10T11:20:39.408Z,6.73
2018-04-10T11:22:43.429Z,6.70
2018-04-10T11:24:47.481Z,7.20
2018-04-10T11:26:51.474Z,6.70
2018-04-10T11:28:59.358Z,6.37
2018-04-10T11:31:03.391Z,6.20
2018-04-10T11:33:07.449Z,5.70
2018-04-10T11:35:11.471Z,6.03
2018-04-10T11:37:15.496Z,6.20
2018-04-10T11:39:19.542Z,6.00
2018-04-10T11:41:23.568Z,5.97
2018-04-10T11:43:27.605Z,6.13
2018-04-10T11:45:31.821Z,5.97
2018-04-10T11:47:36.315Z,5.80
2018-04-10T11:49:40.828Z,6.73
2018-04-10T11:51:45.603Z,6.03
2018-04-10T11:53:49.644Z,6.97
2018-04-10T11:55:53.813Z,7.33
2018-04-10T11:57:57.815Z,7.60
2018-04-10T12:00:01.830Z,7.00
2018-04-10T12:02:05.880Z,6.93
2018-04-10T12:04:09.883Z,6.50
2018-04-10T12:06:13.951Z,6.80
2018-04-10T12:08:18.170Z,6.43
2018-04-10T12:10:22.273Z,7.50
2018-04-10T12:12:28.584Z,7.00
2018-04-10T12:14:33.265Z,7.80
2018-04-10T12:16:37.335Z,6.47
2018-04-10T12:18:41.354Z,7.73
2018-04-10T12:20:45.413Z,7.10
2018-04-10T12:22:49.456Z,7.37
2018-04-10T12:24:53.479Z,6.70
2018-04-10T12:26:57.513Z,6.20
2018-04-10T12:29:01.553Z,7.20
2018-04-10T12:31:05.594Z,7.00
2018-04-10T12:33:09.636Z,6.90
2018-04-10T12:35:13.659Z,7.10
2018-04-10T12:37:17.701Z,6.93
2018-04-10T12:39:21.726Z,7.40
2018-04-10T12:41:26.778Z,6.20
2018-04-10T12:43:30.796Z,7.90
2018-04-10T12:45:34.807Z,6.70
2018-04-10T12:47:38.869Z,6.00
2018-04-10T12:49:42.879Z,5.97
2018-04-10T12:51:46.921Z,5.60
2018-04-10T12:53:50.916Z,6.27
2018-04-10T12:55:54.960Z,7.07
2018-04-10T12:57:59.005Z,6.73
2018-04-10T13:00:03.021Z,6.80
2018-04-10T13:02:07.048Z,6.63
2018-04-10T13:04:11.200Z,7.20
2018-04-10T13:06:15.219Z,6.70
2018-04-10T13:08:19.321Z,7.00
2018-04-10T13:10:23.327Z,7.37
2018-04-10T13:12:27.369Z,7.60
2018-04-10T13:14:31.385Z,8.00
2018-04-10T13:16:35.401Z,7.40
2018-04-10T13:18:39.431Z,7.00
2018-04-10T13:20:48.881Z,6.53
2018-04-10T13:22:52.980Z,7.40
2018-04-10T13:24:57.179Z,8.37
2018-04-10T13:27:04.697Z,7.23
2018-04-10T13:29:08.733Z,7.77
2018-04-10T13:31:12.738Z,6.83
2018-04-10T13:33:16.829Z,7.90
2018-04-10T13:35:21.038Z,8.10
2018-04-10T13:37:25.133Z,7.20
2018-04-10T13:39:29.163Z,6.80
2018-04-10T13:41:33.187Z,7.07
2018-04-10T13:43:37.257Z,6.33
2018-04-10T13:45:41.263Z,6.00
2018-04-10T13:47:45.283Z,6.87
2018-04-10T13:49:49.305Z,7.20
2018-04-10T13:51:53.333Z,6.43
2018-04-10T13:53:57.385Z,7.60
2018-04-10T13:56:01.440Z,5.90
2018-04-10T13:58:05.553Z,6.50
2018-04-10T14:00:10.462Z,7.00
2018-04-10T14:02:14.473Z,7.03
2018-04-10T14:04:18.481Z,6.93
2018-04-10T14:06:22.508Z,7.13
2018-04-10T14:08:26.543Z,6.97
2018-04-10T14:10:30.610Z,7.10
2018-04-10T14:12:34.655Z,7.80
2018-04-10T14:14:42.365Z,8.93
2018-04-10T14:16:46.509Z,7.70
2018-04-10T14:18:50.509Z,8.00
2018-04-10T14:20:54.533Z,7.73
2018-04-10T14:22:58.553Z,7.50
2018-04-10T14:25:02.598Z,7.87
2018-04-10T14:27:06.647Z,7.23
2018-04-10T14:29:10.658Z,8.70
2018-04-10T14:31:14.762Z,7.33
2018-04-10T14:33:18.778Z,6.93
2018-04-10T14:35:22.798Z,6.10
2018-04-10T14:37:26.813Z,6.57
2018-04-10T14:39:30.997Z,6.80
2018-04-10T14:41:35.088Z,6.73
2018-04-10T14:43:39.139Z,6.93
2018-04-10T14:45:43.215Z,6.90
2018-04-10T14:47:47.251Z,7.40
2018-04-10T14:49:51.259Z,6.53
2018-04-10T14:51:55.304Z,6.37
2018-04-10T14:53:59.393Z,7.27
2018-04-10T14:56:03.410Z,7.33
2018-04-10T14:58:07.482Z,7.53
2018-04-10T15:00:11.481Z,7.03
2018-04-10T15:02:15.506Z,6.90
2018-04-10T15:04:19.523Z,7.03
2018-04-10T15:06:23.533Z,7.00
2018-04-10T15:08:27.568Z,6.40
2018-04-10T15:10:31.609Z,6.63
2018-04-10T15:12:35.643Z,6.20
2018-04-10T15:14:39.673Z,6.63
2018-04-10T15:16:43.685Z,6.63
2018-04-10T15:18:47.778Z,6.10
2018-04-10T15:20:51.793Z,5.87
2018-04-10T15:22:55.840Z,6.43
2018-04-10T15:24:59.902Z,6.47
2018-04-10T15:27:03.922Z,5.63
2018-04-10T15:29:07.955Z,6.13
2018-04-10T15:31:11.986Z,5.83
2018-04-10T15:33:16.028Z,5.87
2018-04-10T15:35:20.035Z,5.97
2018-04-10T15:37:24.044Z,5.67
2018-04-10T15:39:28.113Z,5.10
2018-04-10T15:41:34.215Z,4.90
2018-04-10T15:43:38.278Z,5.63
2018-04-10T15:45:42.300Z,5.37
2018-04-10T15:47:46.308Z,5.70
2018-04-10T15:49:50.313Z,5.30
2018-04-10T15:51:54.345Z,5.20
2018-04-10T15:53:58.433Z,4.73
2018-04-10T15:56:04.467Z,4.90
2018-04-10T15:58:08.488Z,4.87
2018-04-10T16:00:12.668Z,30.00
2018-04-10T16:02:16.929Z,15.17
2018-04-10T16:04:20.979Z,24.23
2018-04-10T16:06:25.026Z,11.77
2018-04-10T16:08:29.276Z,5.73
2018-04-10T16:10:33.440Z,5.40
2018-04-10T16:12:38.531Z,52.17
2018-04-10T16:14:42.625Z,9.90
2018-04-10T16:16:46.651Z,21.60
2018-04-10T16:18:50.717Z,24.60
2018-04-10T16:20:54.753Z,20.60
2018-04-10T16:22:58.788Z,16.90
2018-04-10T16:25:02.841Z,9.70
2018-04-10T16:27:06.882Z,15.70
2018-04-10T16:29:10.901Z,21.27
2018-04-10T16:31:14.917Z,7.53
2018-04-10T16:33:18.969Z,7.67
2018-04-10T16:35:23.016Z,6.70
2018-04-10T16:37:27.062Z,7.67
2018-04-10T16:39:31.118Z,6.70
2018-04-10T16:41:35.175Z,9.83
2018-04-10T16:43:39.178Z,8.83
2018-04-10T16:45:43.211Z,11.10
2018-04-10T16:47:47.385Z,18.90
2018-04-10T16:49:51.428Z,8.17
2018-04-10T16:51:55.446Z,7.30
2018-04-10T16:53:59.447Z,7.70
2018-04-10T16:56:03.678Z,9.40
2018-04-10T16:58:09.912Z,10.47
2018-04-10T17:00:13.937Z,9.43
2018-04-10T17:02:18.014Z,8.50
2018-04-10T17:04:22.051Z,9.03
2018-04-10T17:06:26.069Z,9.77
2018-04-10T17:08:30.100Z,8.77
2018-04-10T17:10:34.130Z,8.20
2018-04-10T17:12:38.212Z,7.90
2018-04-10T17:14:42.206Z,7.90
2018-04-10T17:16:46.213Z,8.50
2018-04-10T17:18:50.296Z,7.87
2018-04-10T17:20:54.327Z,10.00
2018-04-10T17:22:58.501Z,9.20
2018-04-10T17:25:02.522Z,11.17
2018-04-10T17:27:06.553Z,8.37
2018-04-10T17:29:10.629Z,8.10
2018-04-10T17:31:14.671Z,8.63
2018-04-10T17:33:18.738Z,8.37
2018-04-10T17:35:22.775Z,11.00
2018-04-10T17:37:26.828Z,12.23
2018-04-10T17:39:30.911Z,13.00
2018-04-10T17:41:34.946Z,11.87
2018-04-10T17:43:38.996Z,9.90
2018-04-10T17:45:44.083Z,12.67
2018-04-10T17:47:48.168Z,19.50
2018-04-10T17:49:52.325Z,11.23
2018-04-10T17:51:56.593Z,9.60
2018-04-10T17:54:00.695Z,16.60
2018-04-10T17:56:04.829Z,13.20
2018-04-10T17:58:08.929Z,20.07
2018-04-10T18:00:13.031Z,10.47
2018-04-10T18:02:17.069Z,8.80
2018-04-10T18:04:21.115Z,9.80
2018-04-10T18:06:25.181Z,15.03
2018-04-10T18:08:29.235Z,23.03
2018-04-10T18:10:33.356Z,16.03
2018-04-10T18:12:37.464Z,13.10
2018-04-10T18:14:41.881Z,11.47
2018-04-10T18:16:45.995Z,10.77
2018-04-10T18:18:50.264Z,10.50
2018-04-10T18:20:54.315Z,12.57
2018-04-10T18:22:58.373Z,12.10
2018-04-10T18:25:02.434Z,12.60
2018-04-10T18:27:06.619Z,11.90
2018-04-10T18:29:10.657Z,11.50
2018-04-10T18:31:14.753Z,11.70
2018-04-10T18:33:18.805Z,12.67
2018-04-10T18:35:22.934Z,11.70
2018-04-10T18:37:26.988Z,13.80
2018-04-10T18:39:31.013Z,15.07
2018-04-10T18:41:35.202Z,14.53
2018-04-10T18:43:39.220Z,15.73
2018-04-10T18:45:43.296Z,15.70
2018-04-10T18:47:47.383Z,16.27
2018-04-10T18:49:51.419Z,15.23
2018-04-10T18:51:55.481Z,15.97
2018-04-10T18:53:59.596Z,18.30
2018-04-10T18:56:03.745Z,18.60
2018-04-10T18:58:08.149Z,16.80
2018-04-10T19:00:12.200Z,19.80
2018-04-10T19:02:16.255Z,17.27
2018-04-10T19:04:20.293Z,15.27
2018-04-10T19:06:25.256Z,15.00
2018-04-10T19:08:29.260Z,13.67
2018-04-10T19:10:33.340Z,13.73
2018-04-10T19:12:37.425Z,13.13
2018-04-10T19:14:41.475Z,14.60
2018-04-10T19:16:45.513Z,14.93
2018-04-10T19:18:49.586Z,13.93
2018-04-10T19:20:53.643Z,14.77
2018-04-10T19:22:57.702Z,15.37
2018-04-10T19:25:01.756Z,13.80
2018-04-10T19:27:05.810Z,17.07
2018-04-10T19:29:09.845Z,15.63
2018-04-10T19:31:15.085Z,16.73
2018-04-10T19:33:21.112Z,17.70
2018-04-10T19:35:25.165Z,17.83
2018-04-10T19:37:29.197Z,18.50
2018-04-10T19:39:33.215Z,18.50
2018-04-10T19:41:37.273Z,18.90
2018-04-10T19:43:41.349Z,17.60
2018-04-10T19:45:45.389Z,18.07
2018-04-10T19:47:50.531Z,17.80
2018-04-10T19:49:54.576Z,16.57
2018-04-10T19:51:58.613Z,18.33
2018-04-10T19:54:02.648Z,15.53
2018-04-10T19:56:06.698Z,11.60
2018-04-10T19:58:13.315Z,10.37
2018-04-10T20:00:17.741Z,9.33
2018-04-10T20:02:21.824Z,13.10
2018-04-10T20:04:25.885Z,15.10
2018-04-10T20:06:29.997Z,14.07
2018-04-10T20:08:34.226Z,14.47
2018-04-10T20:10:38.255Z,15.00
2018-04-10T20:12:42.263Z,16.40
2018-04-10T20:14:46.292Z,17.23
2018-04-10T20:16:50.297Z,17.17
2018-04-10T20:18:54.325Z,16.37
2018-04-10T20:20:58.372Z,17.40
2018-04-10T20:23:02.389Z,16.43
2018-04-10T20:25:06.459Z,16.33
2018-04-10T20:27:10.501Z,17.10
2018-04-10T20:29:14.547Z,16.87
2018-04-10T20:31:18.618Z,15.70
2018-04-10T20:33:22.646Z,18.37
2018-04-10T20:35:26.675Z,16.50
2018-04-10T20:37:30.763Z,18.17
2018-04-10T20:39:34.909Z,17.90
2018-04-10T20:41:38.972Z,17.50
2018-04-10T20:43:43.002Z,18.40
2018-04-10T20:45:47.066Z,18.63
2018-04-10T20:47:51.122Z,20.47
2018-04-10T20:49:55.163Z,20.10
2018-04-10T20:51:59.228Z,21.77
2018-04-10T20:54:03.247Z,21.53
2018-04-10T20:56:07.296Z,22.63
2018-04-10T20:58:11.304Z,20.10
2018-04-10T21:00:15.333Z,23.07
2018-04-10T21:02:19.357Z,23.50
2018-04-10T21:04:23.400Z,22.80
2018-04-10T21:06:27.482Z,23.23
2018-04-10T21:08:31.541Z,22.50
2018-04-10T21:10:35.585Z,21.60
2018-04-10T21:12:39.636Z,21.87
2018-04-10T21:14:43.675Z,22.00
2018-04-10T21:16:47.775Z,20.37
2018-04-10T21:18:51.817Z,19.57
2018-04-10T21:20:55.902Z,18.80
2018-04-10T21:22:59.965Z,18.27
2018-04-10T21:25:04.013Z,16.90
2018-04-10T21:27:09.137Z,17.10
2018-04-10T21:29:13.195Z,16.40
2018-04-10T21:31:17.234Z,16.03
2018-04-10T21:33:21.315Z,16.80
2018-04-10T21:35:25.348Z,13.63
2018-04-10T21:37:29.361Z,13.93
2018-04-10T21:39:35.384Z,12.37
2018-04-10T21:41:39.421Z,13.70
2018-04-10T21:43:43.561Z,13.70
2018-04-10T21:45:47.568Z,11.87
2018-04-10T21:47:51.601Z,11.80
2018-04-10T21:49:55.803Z,14.10
2018-04-10T21:51:59.832Z,12.90
2018-04-10T21:54:03.863Z,12.27
2018-04-10T21:56:07.864Z,11.70
2018-04-10T21:58:11.894Z,12.77
2018-04-10T22:00:15.962Z,12.07
2018-04-10T22:02:19.967Z,11.77
2018-04-10T22:04:24.034Z,12.20
2018-04-10T22:06:28.041Z,12.53
2018-04-10T22:08:32.052Z,11.90
2018-04-10T22:10:36.095Z,11.10
2018-04-10T22:12:40.131Z,12.07
2018-04-10T22:14:44.180Z,11.93
2018-04-10T22:16:48.220Z,12.07
2018-04-10T22:18:52.260Z,13.03
2018-04-10T22:20:56.301Z,13.40
2018-04-10T22:23:00.317Z,13.17
2018-04-10T22:25:04.369Z,13.83
2018-04-10T22:27:08.399Z,13.87
2018-04-10T22:29:12.416Z,15.70
2018-04-10T22:31:16.456Z,15.20
2018-04-10T22:33:20.495Z,15.30
2018-04-10T22:35:24.528Z,13.03
2018-04-10T22:37:28.538Z,12.10
2018-04-10T22:39:32.570Z,10.73
2018-04-10T22:41:36.619Z,10.30
2018-04-10T22:43:40.763Z,10.20
2018-04-10T22:45:44.832Z,10.00
2018-04-10T22:47:48.843Z,10.33
2018-04-10T22:49:52.883Z,10.03
2018-04-10T22:51:56.959Z,8.80
2018-04-10T22:54:00.997Z,7.73
2018-04-10T22:56:05.032Z,5.83
2018-04-10T22:58:09.058Z,6.97
2018-04-10T23:00:13.095Z,6.03
2018-04-10T23:02:17.131Z,5.53
2018-04-10T23:04:21.348Z,5.73
2018-04-10T23:06:25.381Z,5.67
2018-04-10T23:08:29.492Z,5.40
2018-04-10T23:10:33.527Z,5.67
2018-04-10T23:12:37.575Z,5.80
2018-04-10T23:14:41.611Z,5.50
2018-04-10T23:16:45.651Z,5.63
2018-04-10T23:18:49.731Z,6.23
2018-04-10T23:20:53.751Z,6.27
2018-04-10T23:22:57.816Z,6.33
2018-04-10T23:25:01.891Z,6.30
2018-04-10T23:27:05.952Z,6.73
2018-04-10T23:29:09.994Z,6.87
2018-04-10T23:31:14.035Z,7.27
2018-04-10T23:33:18.067Z,7.43
2018-04-10T23:38:29.370Z,7.20
2018-04-10T23:40:33.402Z,8.10
2018-04-10T23:42:37.463Z,7.47
2018-04-10T23:44:41.488Z,6.37
2018-04-10T23:46:45.506Z,7.33
2018-04-10T23:48:49.542Z,6.40
2018-04-10T23:50:53.582Z,7.23
2018-04-10T23:52:57.575Z,6.70
2018-04-10T23:55:01.659Z,6.90
2018-04-10T23:57:05.690Z,6.73
2018-04-10T23:59:09.746Z,7.40
